createdAt,value
2022-12-15T00:01:09.580Z,26.30
2022-12-15T00:05:39.811Z,15.80
2022-12-15T00:10:10.052Z,18.03
2022-12-15T00:14:40.197Z,19.13
2022-12-15T00:19:10.368Z,14.87
2022-12-15T00:23:40.435Z,13.77
2022-12-15T00:28:10.528Z,16.90
2022-12-15T00:32:41.244Z,14.70
2022-12-15T00:37:11.336Z,14.10
2022-12-15T00:41:24.086Z,16.63
2022-12-15T00:45:54.404Z,14.53
2022-12-15T00:50:24.478Z,20.27
2022-12-15T00:54:54.530Z,16.40
2022-12-15T00:59:24.661Z,13.63
2022-12-15T01:03:54.797Z,19.70
2022-12-15T01:08:24.958Z,17.17
2022-12-15T01:12:55.242Z,17.57
2022-12-15T01:17:25.415Z,20.47
2022-12-15T01:21:36.901Z,19.70
2022-12-15T01:25:51.152Z,17.83
2022-12-15T01:30:03.681Z,15.47
2022-12-15T01:34:15.226Z,14.83
2022-12-15T01:38:28.494Z,13.50
2022-12-15T01:42:40.197Z,19.50
2022-12-15T01:46:55.202Z,14.67
2022-12-15T01:51:13.351Z,14.50
2022-12-15T01:55:28.360Z,15.13
2022-12-15T01:59:46.218Z,17.90
2022-12-15T02:03:57.840Z,13.17
2022-12-15T02:08:10.109Z,16.70
2022-12-15T02:12:46.699Z,14.50
2022-12-15T02:17:06.288Z,13.73
2022-12-15T02:21:30.624Z,11.60
2022-12-15T02:25:57.272Z,16.43
2022-12-15T02:30:15.285Z,16.87
2022-12-15T02:35:08.702Z,15.37
2022-12-15T02:39:20.313Z,18.83
2022-12-15T02:43:37.086Z,13.83
2022-12-15T02:48:09.895Z,18.00
2022-12-15T02:52:58.996Z,17.53
2022-12-15T02:57:28.859Z,11.93
2022-12-15T03:01:52.033Z,13.67
2022-12-15T03:06:04.365Z,13.97
2022-12-15T03:10:16.304Z,14.03
2022-12-15T03:14:28.185Z,14.33
2022-12-15T03:18:39.983Z,13.53
2022-12-15T03:22:51.587Z,15.93
2022-12-15T03:27:04.547Z,14.70
2022-12-15T03:31:16.210Z,16.70
2022-12-15T03:35:27.877Z,14.93
2022-12-15T03:39:39.446Z,13.97
2022-12-15T03:43:50.989Z,15.20
2022-12-15T03:48:02.630Z,14.27
2022-12-15T03:52:14.171Z,14.60
2022-12-15T03:56:25.880Z,12.23
2022-12-15T04:00:37.739Z,13.20
2022-12-15T04:04:49.356Z,13.07
2022-12-15T04:09:01.097Z,15.53
2022-12-15T04:13:12.844Z,13.60
2022-12-15T04:17:24.493Z,14.17
2022-12-15T04:21:36.173Z,15.70
2022-12-15T04:26:06.484Z,12.17
2022-12-15T04:30:36.673Z,15.50
2022-12-15T04:35:06.991Z,14.33
2022-12-15T04:39:37.654Z,15.10
2022-12-15T04:44:07.821Z,15.13
2022-12-15T04:48:38.011Z,12.57
2022-12-15T04:53:08.091Z,15.80
2022-12-15T04:57:38.200Z,15.90
2022-12-15T05:02:08.424Z,15.03
2022-12-15T05:06:38.460Z,13.83
2022-12-15T05:11:08.644Z,15.70
2022-12-15T05:15:38.921Z,11.87
2022-12-15T05:20:09.238Z,12.50
2022-12-15T05:24:39.334Z,13.73
2022-12-15T05:29:09.608Z,14.47
2022-12-15T05:33:21.299Z,16.73
2022-12-15T05:37:32.906Z,14.77
2022-12-15T05:41:45.082Z,26.00
2022-12-15T05:45:56.744Z,52.60
2022-12-15T05:50:08.907Z,55.70
2022-12-15T05:54:20.632Z,42.13
2022-12-15T05:58:32.224Z,28.97
2022-12-15T06:02:43.806Z,25.20
2022-12-15T06:06:55.397Z,21.70
2022-12-15T06:11:07.455Z,18.27
2022-12-15T06:15:19.073Z,21.50
2022-12-15T06:19:30.904Z,21.33
2022-12-15T06:23:42.635Z,15.77
2022-12-15T06:27:58.446Z,17.13
2022-12-15T06:32:13.275Z,23.30
2022-12-15T06:36:25.130Z,18.60
2022-12-15T06:40:38.288Z,18.73
2022-12-15T06:44:50.094Z,15.30
2022-12-15T06:49:02.216Z,22.43
2022-12-15T06:53:15.395Z,18.70
2022-12-15T06:57:27.003Z,20.33
2022-12-15T07:01:38.891Z,19.87
2022-12-15T07:06:02.374Z,16.93
2022-12-15T07:10:14.102Z,14.67
2022-12-15T07:14:26.714Z,22.73
2022-12-15T07:18:38.906Z,18.93
2022-12-15T07:22:51.781Z,18.33
2022-12-15T07:27:03.393Z,24.90
2022-12-15T07:31:15.708Z,18.53
2022-12-15T07:35:27.439Z,19.90
2022-12-15T07:39:38.984Z,18.97
2022-12-15T07:43:50.452Z,25.67
2022-12-15T07:48:02.024Z,21.40
2022-12-15T07:52:14.091Z,21.63
2022-12-15T07:56:25.651Z,19.10
2022-12-15T08:00:37.230Z,18.70
2022-12-15T08:04:49.170Z,17.67
2022-12-15T08:09:00.633Z,19.83
2022-12-15T08:13:31.376Z,23.43
2022-12-15T08:17:46.473Z,24.47
2022-12-15T08:21:58.447Z,26.47
2022-12-15T08:26:12.483Z,29.20
2022-12-15T08:30:24.496Z,19.07
2022-12-15T08:34:36.105Z,36.50
2022-12-15T08:38:47.754Z,42.53
2022-12-15T08:42:59.216Z,33.47
2022-12-15T08:47:10.730Z,37.77
2022-12-15T08:51:25.767Z,50.13
2022-12-15T08:55:37.303Z,43.83
2022-12-15T08:59:49.004Z,33.27
2022-12-15T09:04:01.323Z,23.83
2022-12-15T09:08:13.012Z,24.87
2022-12-15T09:12:28.247Z,56.50
2022-12-15T09:16:39.813Z,28.00
2022-12-15T09:20:51.497Z,24.43
2022-12-15T09:25:04.476Z,21.13
2022-12-15T09:29:16.296Z,28.27
2022-12-15T09:33:28.022Z,21.53
2022-12-15T09:37:39.964Z,23.20
2022-12-15T09:42:00.746Z,23.87
2022-12-15T09:46:50.707Z,22.47
2022-12-15T09:51:05.453Z,20.57
2022-12-15T09:55:37.337Z,21.90
2022-12-15T10:00:26.074Z,22.27
2022-12-15T10:04:43.590Z,29.17
2022-12-15T10:09:10.108Z,24.37
2022-12-15T10:13:47.390Z,24.60
2022-12-15T10:18:46.394Z,20.90
2022-12-15T10:23:14.044Z,19.33
2022-12-15T10:27:50.393Z,21.50
2022-12-15T10:32:16.312Z,19.27
2022-12-15T10:36:27.884Z,24.10
2022-12-15T10:40:55.570Z,19.53
2022-12-15T10:45:33.072Z,21.60
2022-12-15T10:49:44.850Z,21.03
2022-12-15T10:54:13.196Z,19.67
2022-12-15T10:58:24.920Z,19.50
2022-12-15T11:02:37.344Z,23.83
2022-12-15T11:06:56.484Z,23.37
2022-12-15T11:11:45.236Z,20.90
2022-12-15T11:15:57.148Z,34.70
2022-12-15T11:20:18.383Z,33.40
2022-12-15T11:25:12.433Z,52.00
2022-12-15T11:29:23.975Z,26.03
2022-12-15T11:33:36.091Z,29.13
2022-12-15T11:38:03.568Z,24.73
2022-12-15T11:42:30.259Z,21.27
2022-12-15T11:46:51.796Z,22.70
2022-12-15T11:51:17.644Z,20.93
2022-12-15T11:55:47.436Z,21.70
2022-12-15T12:00:09.001Z,23.40
2022-12-15T12:04:43.482Z,28.27
2022-12-15T12:09:10.208Z,23.73
2022-12-15T12:13:38.168Z,21.30
2022-12-15T12:17:53.144Z,29.47
2022-12-15T12:22:14.942Z,22.43
2022-12-15T12:26:37.821Z,21.93
2022-12-15T12:30:50.504Z,21.33
2022-12-15T12:35:38.361Z,19.20
2022-12-15T12:39:54.052Z,20.43
2022-12-15T12:44:21.837Z,22.57
2022-12-15T12:48:58.733Z,21.97
2022-12-15T12:53:32.616Z,27.83
2022-12-15T12:57:45.808Z,23.27
2022-12-15T13:02:18.661Z,23.23
2022-12-15T13:06:36.531Z,25.07
2022-12-15T13:10:50.786Z,26.90
2022-12-15T13:15:18.554Z,24.77
2022-12-15T13:19:58.164Z,31.53
2022-12-15T13:24:35.727Z,24.77
2022-12-15T13:28:50.738Z,19.83
2022-12-15T13:33:18.350Z,28.90
2022-12-15T13:38:03.140Z,23.07
2022-12-15T13:42:33.040Z,20.80
2022-12-15T13:46:47.640Z,25.53
2022-12-15T13:51:18.263Z,24.17
2022-12-15T13:55:38.239Z,21.60
2022-12-15T14:00:18.771Z,32.87
2022-12-15T14:04:30.433Z,20.73
2022-12-15T14:08:42.994Z,22.87
2022-12-15T14:12:57.563Z,29.83
2022-12-15T14:17:14.057Z,24.30
2022-12-15T14:21:30.355Z,21.33
2022-12-15T14:25:52.872Z,21.20
2022-12-15T14:30:14.013Z,31.10
2022-12-15T14:34:29.163Z,47.30
2022-12-15T14:38:45.966Z,36.83
2022-12-15T14:42:57.821Z,39.17
2022-12-15T14:47:23.536Z,30.17
2022-12-15T14:51:42.972Z,59.40
2022-12-15T14:55:54.919Z,37.87
2022-12-15T15:00:29.919Z,38.87
2022-12-15T15:04:41.689Z,27.27
2022-12-15T15:08:53.801Z,23.40
2022-12-15T15:13:05.525Z,33.40
2022-12-15T15:17:42.665Z,25.93
2022-12-15T15:21:54.377Z,28.30
2022-12-15T15:26:05.925Z,22.93
2022-12-15T15:30:21.504Z,25.07
2022-12-15T15:34:33.447Z,26.23
2022-12-15T15:38:46.781Z,25.33
2022-12-15T15:42:58.440Z,28.60
2022-12-15T15:47:36.837Z,32.37
2022-12-15T15:51:48.882Z,31.07
2022-12-15T15:56:02.272Z,33.33
2022-12-15T16:00:21.647Z,42.60
2022-12-15T16:04:33.366Z,36.37
2022-12-15T16:08:47.392Z,33.80
2022-12-15T16:13:01.340Z,29.33
2022-12-15T16:17:14.817Z,27.83
2022-12-15T16:21:27.888Z,27.43
2022-12-15T16:25:50.638Z,28.47
2022-12-15T16:30:06.189Z,27.03
2022-12-15T16:34:19.184Z,29.67
2022-12-15T16:38:32.154Z,32.10
2022-12-15T16:42:48.567Z,29.80
2022-12-15T16:47:00.358Z,24.97
2022-12-15T16:51:29.473Z,31.47
2022-12-15T16:55:42.065Z,22.73
2022-12-15T16:59:53.700Z,27.20
2022-12-15T17:04:05.382Z,25.53
2022-12-15T17:08:29.764Z,37.17
2022-12-15T17:12:41.715Z,26.57
2022-12-15T17:16:55.549Z,34.50
2022-12-15T17:21:13.396Z,38.83
2022-12-15T17:26:00.877Z,86.43
2022-12-15T17:30:02.623Z,56.43
2022-12-15T17:34:30.331Z,47.40
2022-12-15T17:38:42.127Z,43.87
2022-12-15T17:42:53.704Z,33.43
2022-12-15T17:47:07.971Z,35.83
2022-12-15T17:51:20.323Z,37.57
2022-12-15T17:55:35.375Z,37.97
2022-12-15T17:59:47.348Z,41.03
2022-12-15T18:03:59.160Z,33.63
2022-12-15T18:08:27.856Z,52.23
2022-12-15T18:12:39.553Z,46.10
2022-12-15T18:16:51.204Z,33.40
2022-12-15T18:21:12.677Z,40.07
2022-12-15T18:25:30.157Z,35.77
2022-12-15T18:29:42.020Z,36.57
2022-12-15T18:34:00.885Z,37.63
2022-12-15T18:38:23.802Z,39.07
2022-12-15T18:42:35.561Z,39.10
2022-12-15T18:46:48.225Z,42.00
2022-12-15T18:51:02.741Z,38.23
2022-12-15T18:55:18.941Z,37.87
2022-12-15T18:59:35.929Z,37.67
2022-12-15T19:03:47.597Z,30.57
2022-12-15T19:08:03.050Z,31.63
2022-12-15T19:12:18.549Z,36.63
2022-12-15T19:16:53.084Z,38.33
2022-12-15T19:21:44.386Z,33.17
2022-12-15T19:25:55.971Z,32.63
2022-12-15T19:30:18.910Z,30.90
2022-12-15T19:34:30.968Z,46.47
2022-12-15T19:38:43.528Z,38.70
2022-12-15T19:42:55.412Z,35.70
2022-12-15T19:47:13.507Z,36.00
2022-12-15T19:51:25.560Z,39.17
2022-12-15T19:55:37.220Z,39.67
2022-12-15T19:59:49.050Z,29.80
2022-12-15T20:04:00.694Z,34.20
2022-12-15T20:08:22.132Z,35.77
2022-12-15T20:12:33.869Z,25.53
2022-12-15T20:16:45.686Z,29.17
2022-12-15T20:20:59.212Z,31.03
2022-12-15T20:25:16.968Z,33.10
2022-12-15T20:29:30.842Z,34.70
2022-12-15T20:33:47.361Z,38.03
2022-12-15T20:38:00.264Z,29.07
2022-12-15T20:42:15.238Z,26.13
2022-12-15T20:46:35.492Z,23.73
2022-12-15T20:50:49.196Z,24.83
2022-12-15T20:55:02.951Z,25.07
2022-12-15T20:59:36.525Z,25.60
2022-12-15T21:03:51.853Z,24.13
2022-12-15T21:08:14.337Z,22.67
2022-12-15T21:12:27.786Z,22.47
2022-12-15T21:16:39.562Z,24.00
2022-12-15T21:20:54.425Z,22.03
2022-12-15T21:25:22.369Z,19.70
2022-12-15T21:29:34.966Z,25.57
2022-12-15T21:33:47.085Z,23.37
2022-12-15T21:38:01.226Z,19.73
2022-12-15T21:42:16.019Z,22.00
2022-12-15T21:46:28.815Z,19.57
2022-12-15T21:50:43.259Z,28.55
2022-12-15T21:54:54.949Z,29.87
2022-12-15T21:59:12.813Z,21.50
2022-12-15T22:03:24.464Z,24.87
2022-12-15T22:07:36.108Z,21.53
2022-12-15T22:11:51.379Z,26.33
2022-12-15T22:16:03.096Z,22.43
2022-12-15T22:20:23.236Z,22.13
2022-12-15T22:24:34.923Z,24.73
2022-12-15T22:28:46.509Z,29.63
2022-12-15T22:32:58.151Z,30.43
2022-12-15T22:37:09.822Z,28.07
2022-12-15T22:41:22.905Z,27.03
2022-12-15T22:45:38.258Z,25.77
2022-12-15T22:49:52.753Z,26.13
2022-12-15T22:54:17.889Z,26.77
2022-12-15T22:58:41.650Z,28.87
2022-12-15T23:02:53.397Z,26.97
2022-12-15T23:07:10.103Z,28.67
2022-12-15T23:11:37.167Z,30.47
2022-12-15T23:16:08.384Z,22.37
2022-12-15T23:20:20.188Z,26.50
2022-12-15T23:24:31.839Z,25.43
2022-12-15T23:28:43.709Z,26.87
2022-12-15T23:32:55.621Z,21.90
2022-12-15T23:37:07.461Z,25.63
2022-12-15T23:41:20.030Z,26.47
2022-12-15T23:45:31.586Z,22.03
2022-12-15T23:49:43.178Z,23.73
2022-12-15T23:53:54.808Z,31.33
2022-12-15T23:58:06.457Z,24.90
